sensor_id;sensor_type;location;lat;lon;timestamp;pressure;altitude;pressure_sealevel;temperature
79228;BMP280;68658;46.174;11.254;2023-04-03T00:01:36;92319.81;;;8.04
79228;BMP280;68658;46.174;11.254;2023-04-03T00:04:06;92310.50;;;8.03
79228;BMP280;68658;46.174;11.254;2023-04-03T00:06:32;92304.28;;;8.06
79228;BMP280;68658;46.174;11.254;2023-04-03T00:08:57;92305.75;;;8.13
79228;BMP280;68658;46.174;11.254;2023-04-03T00:11:23;92295.19;;;8.02
79228;BMP280;68658;46.174;11.254;2023-04-03T00:13:49;92301.19;;;8.02
79228;BMP280;68658;46.174;11.254;2023-04-03T00:16:14;92301.47;;;8.21
79228;BMP280;68658;46.174;11.254;2023-04-03T00:18:41;92301.00;;;8.28
79228;BMP280;68658;46.174;11.254;2023-04-03T00:21:07;92295.03;;;8.16
79228;BMP280;68658;46.174;11.254;2023-04-03T00:23:33;92301.47;;;8.15
79228;BMP280;68658;46.174;11.254;2023-04-03T00:25:59;92302.13;;;7.88
79228;BMP280;68658;46.174;11.254;2023-04-03T00:28:25;92303.31;;;7.87
79228;BMP280;68658;46.174;11.254;2023-04-03T00:30:52;92297.28;;;7.76
79228;BMP280;68658;46.174;11.254;2023-04-03T00:33:18;92296.78;;;7.67
79228;BMP280;68658;46.174;11.254;2023-04-03T00:35:47;92293.22;;;7.69
79228;BMP280;68658;46.174;11.254;2023-04-03T00:38:14;92304.38;;;7.54
79228;BMP280;68658;46.174;11.254;2023-04-03T00:40:43;92297.91;;;7.44
79228;BMP280;68658;46.174;11.254;2023-04-03T00:43:20;92297.44;;;7.45
79228;BMP280;68658;46.174;11.254;2023-04-03T00:45:51;92291.22;;;7.43
79228;BMP280;68658;46.174;11.254;2023-04-03T00:48:32;92286.47;;;7.52
79228;BMP280;68658;46.174;11.254;2023-04-03T00:50:59;92284.56;;;7.58
79228;BMP280;68658;46.174;11.254;2023-04-03T00:53:30;92283.88;;;7.58
79228;BMP280;68658;46.174;11.254;2023-04-03T00:55:56;92276.22;;;7.60
79228;BMP280;68658;46.174;11.254;2023-04-03T00:58:28;92276.66;;;7.53
79228;BMP280;68658;46.174;11.254;2023-04-03T01:01:03;92272.81;;;7.48
79228;BMP280;68658;46.174;11.254;2023-04-03T01:03:30;92275.25;;;7.52
79228;BMP280;68658;46.174;11.254;2023-04-03T01:05:57;92269.25;;;7.46
79228;BMP280;68658;46.174;11.254;2023-04-03T01:08:23;92275.69;;;7.45
79228;BMP280;68658;46.174;11.254;2023-04-03T01:10:49;92266.78;;;7.26
79228;BMP280;68658;46.174;11.254;2023-04-03T01:13:29;92263.16;;;7.18
79228;BMP280;68658;46.174;11.254;2023-04-03T01:15:55;92260.03;;;7.08
79228;BMP280;68658;46.174;11.254;2023-04-03T01:18:25;92271.22;;;7.09
79228;BMP280;68658;46.174;11.254;2023-04-03T01:26:03;92266.72;;;6.68
79228;BMP280;68658;46.174;11.254;2023-04-03T01:28:33;92269.63;;;6.75
79228;BMP280;68658;46.174;11.254;2023-04-03T01:33:53;92266.59;;;6.51
79228;BMP280;68658;46.174;11.254;2023-04-03T01:36:27;92270.94;;;6.60
79228;BMP280;68658;46.174;11.254;2023-04-03T01:38:55;92265.69;;;6.54
79228;BMP280;68658;46.174;11.254;2023-04-03T01:41:21;92279.19;;;6.47
79228;BMP280;68658;46.174;11.254;2023-04-03T01:43:48;92269.50;;;6.53
79228;BMP280;68658;46.174;11.254;2023-04-03T01:46:14;92263.47;;;6.47
79228;BMP280;68658;46.174;11.254;2023-04-03T01:48:40;92275.16;;;6.46
79228;BMP280;68658;46.174;11.254;2023-04-03T01:51:06;92274.16;;;6.38
79228;BMP280;68658;46.174;11.254;2023-04-03T01:53:31;92272.13;;;6.22
79228;BMP280;68658;46.174;11.254;2023-04-03T01:55:57;92268.38;;;6.34
79228;BMP280;68658;46.174;11.254;2023-04-03T01:58:22;92272.53;;;6.46
79228;BMP280;68658;46.174;11.254;2023-04-03T02:00:48;92258.91;;;6.42
79228;BMP280;68658;46.174;11.254;2023-04-03T02:03:13;92263.47;;;6.47
79228;BMP280;68658;46.174;11.254;2023-04-03T02:05:40;92261.78;;;6.44
79228;BMP280;68658;46.174;11.254;2023-04-03T02:08:05;92262.81;;;6.52
79228;BMP280;68658;46.174;11.254;2023-04-03T02:10:31;92263.94;;;6.46
79228;BMP280;68658;46.174;11.254;2023-04-03T02:12:57;92255.22;;;6.29
79228;BMP280;68658;46.174;11.254;2023-04-03T02:15:23;92266.44;;;6.29
79228;BMP280;68658;46.174;11.254;2023-04-03T02:17:48;92257.16;;;6.28
79228;BMP280;68658;46.174;11.254;2023-04-03T02:20:14;92258.84;;;6.31
79228;BMP280;68658;46.174;11.254;2023-04-03T02:22:42;92261.97;;;6.35
79228;BMP280;68658;46.174;11.254;2023-04-03T02:25:08;92248.53;;;6.22
79228;BMP280;68658;46.174;11.254;2023-04-03T02:27:34;92244.63;;;6.13
79228;BMP280;68658;46.174;11.254;2023-04-03T02:30:04;92236.91;;;6.04
79228;BMP280;68658;46.174;11.254;2023-04-03T02:32:30;92244.56;;;6.07
79228;BMP280;68658;46.174;11.254;2023-04-03T02:34:55;92241.72;;;6.05
79228;BMP280;68658;46.174;11.254;2023-04-03T02:37:21;92251.31;;;6.13
79228;BMP280;68658;46.174;11.254;2023-04-03T02:39:47;92247.63;;;6.00
79228;BMP280;68658;46.174;11.254;2023-04-03T02:42:13;92238.44;;;5.85
79228;BMP280;68658;46.174;11.254;2023-04-03T02:44:38;92243.88;;;5.81
79228;BMP280;68658;46.174;11.254;2023-04-03T02:47:04;92240.59;;;5.86
79228;BMP280;68658;46.174;11.254;2023-04-03T02:49:30;92239.03;;;6.00
79228;BMP280;68658;46.174;11.254;2023-04-03T02:51:56;92240.28;;;5.79
79228;BMP280;68658;46.174;11.254;2023-04-03T02:54:21;92242.81;;;5.48
79228;BMP280;68658;46.174;11.254;2023-04-03T02:56:48;92240.16;;;5.68
79228;BMP280;68658;46.174;11.254;2023-04-03T02:59:14;92236.50;;;5.80
79228;BMP280;68658;46.174;11.254;2023-04-03T03:01:40;92233.41;;;5.81
79228;BMP280;68658;46.174;11.254;2023-04-03T03:04:05;92238.50;;;5.90
79228;BMP280;68658;46.174;11.254;2023-04-03T03:06:31;92226.22;;;6.02
79228;BMP280;68658;46.174;11.254;2023-04-03T03:08:59;92236.84;;;5.93
79228;BMP280;68658;46.174;11.254;2023-04-03T03:11:24;92237.06;;;5.89
79228;BMP280;68658;46.174;11.254;2023-04-03T03:13:50;92238.94;;;5.89
79228;BMP280;68658;46.174;11.254;2023-04-03T03:16:16;92232.47;;;5.84
79228;BMP280;68658;46.174;11.254;2023-04-03T03:18:41;92232.19;;;5.77
79228;BMP280;68658;46.174;11.254;2023-04-03T03:21:06;92237.28;;;5.66
79228;BMP280;68658;46.174;11.254;2023-04-03T03:23:32;92231.13;;;5.69
79228;BMP280;68658;46.174;11.254;2023-04-03T03:26:04;92231.13;;;5.69
79228;BMP280;68658;46.174;11.254;2023-04-03T03:28:31;92228.25;;;5.67
79228;BMP280;68658;46.174;11.254;2023-04-03T03:30:58;92225.19;;;5.74
79228;BMP280;68658;46.174;11.254;2023-04-03T03:33:24;92220.44;;;5.98
79228;BMP280;68658;46.174;11.254;2023-04-03T03:35:51;92216.91;;;6.01
79228;BMP280;68658;46.174;11.254;2023-04-03T03:38:16;92219.06;;;6.02
79228;BMP280;68658;46.174;11.254;2023-04-03T03:40:42;92218.72;;;5.89
79228;BMP280;68658;46.174;11.254;2023-04-03T03:43:07;92220.09;;;5.85
79228;BMP280;68658;46.174;11.254;2023-04-03T03:45:33;92225.03;;;5.77
79228;BMP280;68658;46.174;11.254;2023-04-03T03:47:58;92218.41;;;5.82
79228;BMP280;68658;46.174;11.254;2023-04-03T03:50:24;92221.53;;;5.86
79228;BMP280;68658;46.174;11.254;2023-04-03T03:52:50;92213.75;;;5.97
79228;BMP280;68658;46.174;11.254;2023-04-03T03:55:15;92209.38;;;6.13
79228;BMP280;68658;46.174;11.254;2023-04-03T03:57:43;92207.09;;;5.96
79228;BMP280;68658;46.174;11.254;2023-04-03T04:00:12;92215.47;;;6.00
79228;BMP280;68658;46.174;11.254;2023-04-03T04:02:37;92208.47;;;6.22
79228;BMP280;68658;46.174;11.254;2023-04-03T04:05:03;92216.53;;;6.13
79228;BMP280;68658;46.174;11.254;2023-04-03T04:07:29;92211.28;;;6.13
79228;BMP280;68658;46.174;11.254;2023-04-03T04:09:54;92218.88;;;6.42
79228;BMP280;68658;46.174;11.254;2023-04-03T04:12:20;92212.41;;;6.37
79228;BMP280;68658;46.174;11.254;2023-04-03T04:14:47;92217.25;;;6.13
79228;BMP280;68658;46.174;11.254;2023-04-03T04:17:13;92228.41;;;6.09
79228;BMP280;68658;46.174;11.254;2023-04-03T04:19:39;92215.84;;;6.18
79228;BMP280;68658;46.174;11.254;2023-04-03T04:22:05;92225.25;;;6.35
79228;BMP280;68658;46.174;11.254;2023-04-03T04:24:31;92222.16;;;6.31
79228;BMP280;68658;46.174;11.254;2023-04-03T04:26:56;92216.03;;;6.45
79228;BMP280;68658;46.174;11.254;2023-04-03T04:29:22;92216.84;;;6.62
79228;BMP280;68658;46.174;11.254;2023-04-03T04:31:47;92217.63;;;6.74
79228;BMP280;68658;46.174;11.254;2023-04-03T04:34:13;92221.00;;;6.85
79228;BMP280;68658;46.174;11.254;2023-04-03T04:36:39;92213.47;;;6.98
79228;BMP280;68658;46.174;11.254;2023-04-03T04:39:05;92213.50;;;7.09
79228;BMP280;68658;46.174;11.254;2023-04-03T04:41:31;92212.56;;;7.12
79228;BMP280;68658;46.174;11.254;2023-04-03T04:43:57;92209.50;;;7.24
79228;BMP280;68658;46.174;11.254;2023-04-03T04:46:22;92220.22;;;7.26
79228;BMP280;68658;46.174;11.254;2023-04-03T04:48:48;92206.16;;;7.24
79228;BMP280;68658;46.174;11.254;2023-04-03T04:51:14;92209.22;;;7.17
79228;BMP280;68658;46.174;11.254;2023-04-03T04:53:39;92217.81;;;7.12
79228;BMP280;68658;46.174;11.254;2023-04-03T04:56:05;92207.50;;;7.03
79228;BMP280;68658;46.174;11.254;2023-04-03T04:58:31;92216.81;;;7.04
79228;BMP280;68658;46.174;11.254;2023-04-03T05:03:25;92214.47;;;7.17
79228;BMP280;68658;46.174;11.254;2023-04-03T05:05:50;92214.97;;;7.15
79228;BMP280;68658;46.174;11.254;2023-04-03T05:08:16;92218.03;;;7.08
79228;BMP280;68658;46.174;11.254;2023-04-03T05:10:41;92215.50;;;7.30
79228;BMP280;68658;46.174;11.254;2023-04-03T05:13:08;92215.50;;;7.36
79228;BMP280;68658;46.174;11.254;2023-04-03T05:15:33;92217.63;;;7.32
79228;BMP280;68658;46.174;11.254;2023-04-03T05:17:59;92219.31;;;7.35
79228;BMP280;68658;46.174;11.254;2023-04-03T05:20:24;92222.91;;;7.37
79228;BMP280;68658;46.174;11.254;2023-04-03T05:22:50;92228.19;;;7.43
79228;BMP280;68658;46.174;11.254;2023-04-03T05:25:16;92231.56;;;7.54
79228;BMP280;68658;46.174;11.254;2023-04-03T05:27:41;92230.38;;;7.55
79228;BMP280;68658;46.174;11.254;2023-04-03T05:30:07;92220.78;;;7.47
79228;BMP280;68658;46.174;11.254;2023-04-03T05:32:33;92233.00;;;7.55
79228;BMP280;68658;46.174;11.254;2023-04-03T05:34:58;92228.94;;;7.60
79228;BMP280;68658;46.174;11.254;2023-04-03T05:37:24;92229.19;;;7.67
79228;BMP280;68658;46.174;11.254;2023-04-03T05:39:49;92220.38;;;7.75
79228;BMP280;68658;46.174;11.254;2023-04-03T05:42:15;92224.44;;;7.76
79228;BMP280;68658;46.174;11.254;2023-04-03T05:44:44;92217.03;;;7.75
79228;BMP280;68658;46.174;11.254;2023-04-03T05:47:11;92222.53;;;7.71
79228;BMP280;68658;46.174;11.254;2023-04-03T05:49:37;92216.56;;;7.82
79228;BMP280;68658;46.174;11.254;2023-04-03T05:52:10;92226.59;;;7.89
79228;BMP280;68658;46.174;11.254;2023-04-03T05:54:42;92226.13;;;7.90
79228;BMP280;68658;46.174;11.254;2023-04-03T05:57:08;92229.50;;;7.96
79228;BMP280;68658;46.174;11.254;2023-04-03T05:59:33;92223.03;;;8.03
79228;BMP280;68658;46.174;11.254;2023-04-03T06:01:59;92213.25;;;8.14
79228;BMP280;68658;46.174;11.254;2023-04-03T06:04:24;92212.28;;;8.12
79228;BMP280;68658;46.174;11.254;2023-04-03T06:06:55;92210.16;;;8.16
79228;BMP280;68658;46.174;11.254;2023-04-03T06:09:24;92204.19;;;8.15
79228;BMP280;68658;46.174;11.254;2023-04-03T06:11:50;92218.28;;;8.18
79228;BMP280;68658;46.174;11.254;2023-04-03T06:14:15;92221.88;;;8.20
79228;BMP280;68658;46.174;11.254;2023-04-03T06:16:41;92218.53;;;8.25
79228;BMP280;68658;46.174;11.254;2023-04-03T06:19:08;92226.19;;;8.34
79228;BMP280;68658;46.174;11.254;2023-04-03T06:21:36;92228.09;;;8.39
79228;BMP280;68658;46.174;11.254;2023-04-03T06:24:05;92217.34;;;8.37
79228;BMP280;68658;46.174;11.254;2023-04-03T06:26:32;92216.13;;;8.38
79228;BMP280;68658;46.174;11.254;2023-04-03T06:28:58;92224.50;;;8.20
79228;BMP280;68658;46.174;11.254;2023-04-03T06:31:23;92210.88;;;8.27
79228;BMP280;68658;46.174;11.254;2023-04-03T06:33:49;92223.81;;;8.25
79228;BMP280;68658;46.174;11.254;2023-04-03T06:36:15;92215.69;;;8.34
79228;BMP280;68658;46.174;11.254;2023-04-03T06:38:45;92199.66;;;8.38
79228;BMP280;68658;46.174;11.254;2023-04-03T06:41:11;92215.41;;;8.48
79228;BMP280;68658;46.174;11.254;2023-04-03T06:43:37;92227.84;;;8.43
79228;BMP280;68658;46.174;11.254;2023-04-03T06:46:02;92216.34;;;8.51
79228;BMP280;68658;46.174;11.254;2023-04-03T06:48:28;92220.19;;;8.50
79228;BMP280;68658;46.174;11.254;2023-04-03T06:50:54;92201.78;;;8.50
79228;BMP280;68658;46.174;11.254;2023-04-03T06:53:20;92217.06;;;8.68
79228;BMP280;68658;46.174;11.254;2023-04-03T06:55:45;92218.03;;;8.59
79228;BMP280;68658;46.174;11.254;2023-04-03T06:58:12;92220.44;;;8.63
79228;BMP280;68658;46.174;11.254;2023-04-03T07:00:39;92230.47;;;8.59
79228;BMP280;68658;46.174;11.254;2023-04-03T07:03:04;92225.69;;;8.63
79228;BMP280;68658;46.174;11.254;2023-04-03T07:05:30;92217.06;;;8.57
79228;BMP280;68658;46.174;11.254;2023-04-03T07:07:56;92232.88;;;8.51
79228;BMP280;68658;46.174;11.254;2023-04-03T07:10:21;92221.63;;;8.56
79228;BMP280;68658;46.174;11.254;2023-04-03T07:12:46;92223.06;;;8.63
79228;BMP280;68658;46.174;11.254;2023-04-03T07:15:12;92226.88;;;8.67
79228;BMP280;68658;46.174;11.254;2023-04-03T07:17:38;92217.75;;;8.79
79228;BMP280;68658;46.174;11.254;2023-04-03T07:20:04;92215.34;;;8.87
79228;BMP280;68658;46.174;11.254;2023-04-03T07:22:30;92212.47;;;8.90
79228;BMP280;68658;46.174;11.254;2023-04-03T07:24:56;92215.34;;;8.87
79228;BMP280;68658;46.174;11.254;2023-04-03T07:27:21;92211.50;;;8.99
79228;BMP280;68658;46.174;11.254;2023-04-03T07:29:47;92220.06;;;9.10
79228;BMP280;68658;46.174;11.254;2023-04-03T07:32:15;92226.09;;;9.05
79228;BMP280;68658;46.174;11.254;2023-04-03T07:34:41;92208.78;;;9.21
79228;BMP280;68658;46.174;11.254;2023-04-03T07:37:06;92201.13;;;9.23
79228;BMP280;68658;46.174;11.254;2023-04-03T07:39:34;92217.88;;;9.25
79228;BMP280;68658;46.174;11.254;2023-04-03T07:42:00;92218.34;;;9.23
79228;BMP280;68658;46.174;11.254;2023-04-03T07:44:27;92216.88;;;9.33
79228;BMP280;68658;46.174;11.254;2023-04-03T07:46:52;92212.78;;;9.38
79228;BMP280;68658;46.174;11.254;2023-04-03T07:49:18;92208.19;;;9.44
79228;BMP280;68658;46.174;11.254;2023-04-03T07:51:44;92210.13;;;9.43
79228;BMP280;68658;46.174;11.254;2023-04-03T07:54:10;92206.47;;;9.52
79228;BMP280;68658;46.174;11.254;2023-04-03T07:56:36;92202.38;;;9.56
79228;BMP280;68658;46.174;11.254;2023-04-03T07:59:02;92205.25;;;9.64
79228;BMP280;68658;46.174;11.254;2023-04-03T08:01:28;92207.88;;;9.64
79228;BMP280;68658;46.174;11.254;2023-04-03T08:03:53;92209.50;;;9.72
79228;BMP280;68658;46.174;11.254;2023-04-03T08:06:19;92202.00;;;9.82
79228;BMP280;68658;46.174;11.254;2023-04-03T08:08:45;92202.75;;;9.82
79228;BMP280;68658;46.174;11.254;2023-04-03T08:11:14;92206.09;;;9.77
79228;BMP280;68658;46.174;11.254;2023-04-03T08:13:39;92193.53;;;9.94
79228;BMP280;68658;46.174;11.254;2023-04-03T08:16:16;92192.34;;;10.01
79228;BMP280;68658;46.174;11.254;2023-04-03T08:18:42;92198.53;;;10.08
79228;BMP280;68658;46.174;11.254;2023-04-03T08:21:11;92191.31;;;10.09
79228;BMP280;68658;46.174;11.254;2023-04-03T08:23:38;92193.38;;;10.21
79228;BMP280;68658;46.174;11.254;2023-04-03T08:26:13;92188.06;;;10.27
79228;BMP280;68658;46.174;11.254;2023-04-03T08:28:39;92183.59;;;10.46
79228;BMP280;68658;46.174;11.254;2023-04-03T08:31:08;92197.00;;;10.48
79228;BMP280;68658;46.174;11.254;2023-04-03T08:33:36;92191.19;;;10.55
79228;BMP280;68658;46.174;11.254;2023-04-03T08:36:06;92187.19;;;10.72
79228;BMP280;68658;46.174;11.254;2023-04-03T08:38:33;92174.16;;;10.79
79228;BMP280;68658;46.174;11.254;2023-04-03T08:41:13;92183.16;;;10.89
79228;BMP280;68658;46.174;11.254;2023-04-03T08:46:22;92172.91;;;11.04
79228;BMP280;68658;46.174;11.254;2023-04-03T08:48:51;92172.16;;;11.09
79228;BMP280;68658;46.174;11.254;2023-04-03T08:51:19;92186.06;;;11.10
79228;BMP280;68658;46.174;11.254;2023-04-03T08:54:01;92179.97;;;10.96
79228;BMP280;68658;46.174;11.254;2023-04-03T08:56:30;92175.81;;;11.25
79228;BMP280;68658;46.174;11.254;2023-04-03T08:58:59;92177.41;;;11.33
79228;BMP280;68658;46.174;11.254;2023-04-03T09:01:36;92179.63;;;11.48
79228;BMP280;68658;46.174;11.254;2023-04-03T09:04:13;92185.75;;;11.61
79228;BMP280;68658;46.174;11.254;2023-04-03T09:06:39;92173.94;;;11.80
79228;BMP280;68658;46.174;11.254;2023-04-03T09:14:25;92174.34;;;11.84
79228;BMP280;68658;46.174;11.254;2023-04-03T09:16:55;92177.41;;;12.07
79228;BMP280;68658;46.174;11.254;2023-04-03T09:22:20;92172.41;;;12.34
79228;BMP280;68658;46.174;11.254;2023-04-03T09:24:50;92185.69;;;12.47
79228;BMP280;68658;46.174;11.254;2023-04-03T09:27:17;92175.03;;;12.22
79228;BMP280;68658;46.174;11.254;2023-04-03T09:29:44;92170.16;;;12.38
79228;BMP280;68658;46.174;11.254;2023-04-03T09:32:21;92165.84;;;12.54
79228;BMP280;68658;46.174;11.254;2023-04-03T09:34:48;92183.03;;;12.47
79228;BMP280;68658;46.174;11.254;2023-04-03T09:37:35;92157.75;;;12.78
79228;BMP280;68658;46.174;11.254;2023-04-03T09:40:01;92148.44;;;12.71
79228;BMP280;68658;46.174;11.254;2023-04-03T09:42:30;92156.72;;;12.81
79228;BMP280;68658;46.174;11.254;2023-04-03T09:45:04;92154.97;;;12.83
79228;BMP280;68658;46.174;11.254;2023-04-03T09:47:35;92155.72;;;12.97
79228;BMP280;68658;46.174;11.254;2023-04-03T09:52:52;92151.34;;;13.25
79228;BMP280;68658;46.174;11.254;2023-04-03T09:55:22;92148.28;;;13.21
79228;BMP280;68658;46.174;11.254;2023-04-03T09:57:53;92151.94;;;13.31
79228;BMP280;68658;46.174;11.254;2023-04-03T10:00:34;92130.75;;;13.31
79228;BMP280;68658;46.174;11.254;2023-04-03T10:03:02;92135.66;;;13.27
79228;BMP280;68658;46.174;11.254;2023-04-03T10:05:34;92139.28;;;13.50
79228;BMP280;68658;46.174;11.254;2023-04-03T10:10:38;92146.47;;;13.62
79228;BMP280;68658;46.174;11.254;2023-04-03T10:13:30;92126.19;;;13.65
79228;BMP280;68658;46.174;11.254;2023-04-03T10:16:11;92132.94;;;13.53
79228;BMP280;68658;46.174;11.254;2023-04-03T10:18:45;92127.56;;;13.32
79228;BMP280;68658;46.174;11.254;2023-04-03T10:21:48;92127.91;;;13.03
79228;BMP280;68658;46.174;11.254;2023-04-03T10:24:27;92125.88;;;13.09
79228;BMP280;68658;46.174;11.254;2023-04-03T10:26:57;92116.47;;;13.34
79228;BMP280;68658;46.174;11.254;2023-04-03T10:35:25;92111.06;;;13.73
79228;BMP280;68658;46.174;11.254;2023-04-03T10:38:01;92133.16;;;14.21
79228;BMP280;68658;46.174;11.254;2023-04-03T10:48:14;92098.25;;;13.64
79228;BMP280;68658;46.174;11.254;2023-04-03T10:53:45;92093.03;;;13.91
79228;BMP280;68658;46.174;11.254;2023-04-03T10:58:54;92074.34;;;13.97
79228;BMP280;68658;46.174;11.254;2023-04-03T11:01:33;92095.81;;;14.06
79228;BMP280;68658;46.174;11.254;2023-04-03T11:04:00;92082.66;;;13.81
79228;BMP280;68658;46.174;11.254;2023-04-03T11:07:02;92067.75;;;14.11
79228;BMP280;68658;46.174;11.254;2023-04-03T11:09:36;92069.41;;;14.01
79228;BMP280;68658;46.174;11.254;2023-04-03T11:12:21;92064.44;;;14.38
79228;BMP280;68658;46.174;11.254;2023-04-03T11:14:51;92059.94;;;14.54
79228;BMP280;68658;46.174;11.254;2023-04-03T11:22:53;92053.53;;;15.48
79228;BMP280;68658;46.174;11.254;2023-04-03T11:25:23;92056.38;;;15.57
79228;BMP280;68658;46.174;11.254;2023-04-03T11:27:57;92044.84;;;15.54
79228;BMP280;68658;46.174;11.254;2023-04-03T11:30:54;92047.75;;;15.71
79228;BMP280;68658;46.174;11.254;2023-04-03T11:33:41;92044.03;;;15.74
79228;BMP280;68658;46.174;11.254;2023-04-03T11:38:44;92035.91;;;16.39
79228;BMP280;68658;46.174;11.254;2023-04-03T11:41:11;92041.78;;;16.38
79228;BMP280;68658;46.174;11.254;2023-04-03T11:43:58;92032.16;;;16.20
79228;BMP280;68658;46.174;11.254;2023-04-03T11:46:59;92018.84;;;17.34
79228;BMP280;68658;46.174;11.254;2023-04-03T12:16:29;91995.06;;;21.21
79228;BMP280;68658;46.174;11.254;2023-04-03T12:18:58;91994.31;;;21.49
79228;BMP280;68658;46.174;11.254;2023-04-03T12:26:23;91988.94;;;22.17
79228;BMP280;68658;46.174;11.254;2023-04-03T12:28:52;91992.72;;;21.83
79228;BMP280;68658;46.174;11.254;2023-04-03T12:31:19;91985.16;;;21.61
79228;BMP280;68658;46.174;11.254;2023-04-03T12:39:41;91991.56;;;23.70
79228;BMP280;68658;46.174;11.254;2023-04-03T12:42:21;91979.03;;;23.01
79228;BMP280;68658;46.174;11.254;2023-04-03T12:47:32;91981.16;;;25.84
79228;BMP280;68658;46.174;11.254;2023-04-03T12:50:02;91990.16;;;23.16
79228;BMP280;68658;46.174;11.254;2023-04-03T12:52:37;91978.38;;;24.64
79228;BMP280;68658;46.174;11.254;2023-04-03T12:55:07;91981.72;;;24.98
79228;BMP280;68658;46.174;11.254;2023-04-03T12:57:35;91980.06;;;25.16
79228;BMP280;68658;46.174;11.254;2023-04-03T13:00:36;91995.03;;;24.60
79228;BMP280;68658;46.174;11.254;2023-04-03T13:03:06;91989.34;;;25.13
79228;BMP280;68658;46.174;11.254;2023-04-03T13:05:32;91993.38;;;25.74
79228;BMP280;68658;46.174;11.254;2023-04-03T13:08:04;91986.84;;;26.80
79228;BMP280;68658;46.174;11.254;2023-04-03T13:10:32;92009.44;;;26.71
79228;BMP280;68658;46.174;11.254;2023-04-03T13:13:08;91976.09;;;25.79
79228;BMP280;68658;46.174;11.254;2023-04-03T13:15:43;91972.94;;;27.54
79228;BMP280;68658;46.174;11.254;2023-04-03T13:18:34;91983.44;;;27.33
79228;BMP280;68658;46.174;11.254;2023-04-03T13:21:16;91975.94;;;29.10
79228;BMP280;68658;46.174;11.254;2023-04-03T13:23:45;91975.59;;;29.18
79228;BMP280;68658;46.174;11.254;2023-04-03T13:26:12;91974.41;;;30.97
79228;BMP280;68658;46.174;11.254;2023-04-03T13:28:44;91989.41;;;29.89
79228;BMP280;68658;46.174;11.254;2023-04-03T13:34:04;91981.41;;;30.82
79228;BMP280;68658;46.174;11.254;2023-04-03T13:36:33;91977.22;;;31.18
79228;BMP280;68658;46.174;11.254;2023-04-03T13:41:46;91993.19;;;31.66
79228;BMP280;68658;46.174;11.254;2023-04-03T13:47:23;91975.94;;;33.17
79228;BMP280;68658;46.174;11.254;2023-04-03T13:49:44;91992.41;;;33.99
79228;BMP280;68658;46.174;11.254;2023-04-03T13:52:30;91981.31;;;32.90
79228;BMP280;68658;46.174;11.254;2023-04-03T13:55:15;91944.50;;;33.71
79228;BMP280;68658;46.174;11.254;2023-04-03T14:00:50;91953.31;;;30.97
79228;BMP280;68658;46.174;11.254;2023-04-03T14:06:10;91944.97;;;30.74
79228;BMP280;68658;46.174;11.254;2023-04-03T14:08:36;91960.66;;;29.84
79228;BMP280;68658;46.174;11.254;2023-04-03T14:11:02;91944.81;;;28.65
79228;BMP280;68658;46.174;11.254;2023-04-03T14:13:30;91946.25;;;31.10
79228;BMP280;68658;46.174;11.254;2023-04-03T14:15:56;91943.94;;;31.62
79228;BMP280;68658;46.174;11.254;2023-04-03T14:18:21;91937.72;;;30.24
79228;BMP280;68658;46.174;11.254;2023-04-03T14:20:48;91939.34;;;33.30
79228;BMP280;68658;46.174;11.254;2023-04-03T14:23:14;91926.47;;;35.52
79228;BMP280;68658;46.174;11.254;2023-04-03T14:25:41;91937.44;;;35.50
79228;BMP280;68658;46.174;11.254;2023-04-03T14:28:19;91945.13;;;33.42
79228;BMP280;68658;46.174;11.254;2023-04-03T14:30:47;91935.63;;;34.59
79228;BMP280;68658;46.174;11.254;2023-04-03T14:33:15;91929.28;;;34.21
79228;BMP280;68658;46.174;11.254;2023-04-03T14:35:42;91928.06;;;36.04
79228;BMP280;68658;46.174;11.254;2023-04-03T14:38:23;91925.75;;;38.13
79228;BMP280;68658;46.174;11.254;2023-04-03T14:40:49;91923.75;;;37.43
79228;BMP280;68658;46.174;11.254;2023-04-03T14:43:15;91924.75;;;37.12
79228;BMP280;68658;46.174;11.254;2023-04-03T14:45:44;91929.81;;;36.76
79228;BMP280;68658;46.174;11.254;2023-04-03T14:48:19;91929.19;;;36.33
79228;BMP280;68658;46.174;11.254;2023-04-03T14:50:46;91943.97;;;38.50
79228;BMP280;68658;46.174;11.254;2023-04-03T14:53:15;91938.25;;;38.18
79228;BMP280;68658;46.174;11.254;2023-04-03T14:55:45;91930.81;;;40.39
79228;BMP280;68658;46.174;11.254;2023-04-03T14:58:13;91929.38;;;39.72
79228;BMP280;68658;46.174;11.254;2023-04-03T15:00:39;91953.97;;;36.86
79228;BMP280;68658;46.174;11.254;2023-04-03T15:03:12;91944.25;;;37.32
79228;BMP280;68658;46.174;11.254;2023-04-03T15:05:38;91951.44;;;39.53
79228;BMP280;68658;46.174;11.254;2023-04-03T15:08:03;91947.81;;;38.11
79228;BMP280;68658;46.174;11.254;2023-04-03T15:10:30;91948.31;;;34.77
79228;BMP280;68658;46.174;11.254;2023-04-03T15:12:56;91995.16;;;33.72
79228;BMP280;68658;46.174;11.254;2023-04-03T15:15:22;92066.94;;;37.49
79228;BMP280;68658;46.174;11.254;2023-04-03T15:17:53;92061.97;;;39.76
79228;BMP280;68658;46.174;11.254;2023-04-03T15:20:22;92046.78;;;37.90
79228;BMP280;68658;46.174;11.254;2023-04-03T15:22:48;92031.75;;;40.58
79228;BMP280;68658;46.174;11.254;2023-04-03T15:25:14;92030.34;;;40.37
79228;BMP280;68658;46.174;11.254;2023-04-03T15:27:40;92035.22;;;40.76
79228;BMP280;68658;46.174;11.254;2023-04-03T15:30:08;92042.09;;;41.09
79228;BMP280;68658;46.174;11.254;2023-04-03T15:32:33;92085.63;;;41.60
79228;BMP280;68658;46.174;11.254;2023-04-03T15:35:00;92001.16;;;39.64
79228;BMP280;68658;46.174;11.254;2023-04-03T15:37:26;92050.00;;;38.37
79228;BMP280;68658;46.174;11.254;2023-04-03T15:39:51;92007.00;;;38.08
79228;BMP280;68658;46.174;11.254;2023-04-03T15:42:17;92045.22;;;39.37
79228;BMP280;68658;46.174;11.254;2023-04-03T15:44:42;92045.59;;;40.66
79228;BMP280;68658;46.174;11.254;2023-04-03T15:47:08;92015.06;;;41.41
79228;BMP280;68658;46.174;11.254;2023-04-03T15:49:34;92049.53;;;41.86
79228;BMP280;68658;46.174;11.254;2023-04-03T15:52:00;92027.44;;;39.79
79228;BMP280;68658;46.174;11.254;2023-04-03T15:54:26;92035.88;;;40.37
79228;BMP280;68658;46.174;11.254;2023-04-03T15:56:55;92086.63;;;42.53
79228;BMP280;68658;46.174;11.254;2023-04-03T15:59:21;92044.91;;;41.13
79228;BMP280;68658;46.174;11.254;2023-04-03T16:01:48;92050.22;;;41.87